Time;durP1;ratioP1;P1;durP2;ratioP2;P2;SDS_P1;SDS_P2;PMS_P1;PMS_P2;Temp;Humidity;BMP_temperature;BMP_pressure;BME280_temperature;BME280_humidity;BME280_pressure;Samples;Min_cycle;Max_cycle;Signal;HPM_P1;HPM_P2
2021/11/15 05:53:25;;;;;;;122.15;72.30;;;;;;;;;;6347928;22;19906;31
2021/11/15 05:55:52;;;;;;;125.80;71.85;;;;;;;;;;6322462;22;20019;-77
2021/11/15 05:58:32;;;;;;;134.65;75.25;;;;;;;;;;6331165;22;20021;-77
2021/11/15 06:01:15;;;;;;;130.05;75.63;;;;;;;;;;6334790;22;20007;-77
2021/11/15 06:03:44;;;;;;;127.63;72.85;;;;;;;;;;6327835;22;19988;-76
2021/11/15 06:17:28;;;;;;;130.43;76.68;;;;;;;;;;6263176;23;20032;-78
2021/11/15 06:19:54;;;;;;;124.57;74.47;;;;;;;;;;6212893;23;20079;-76
2021/11/15 06:22:20;;;;;;;139.40;78.00;;;;;;;;;;6265672;23;19985;-77
2021/11/15 06:25:13;;;;;;;137.70;74.35;;;;;;;;;;6259699;23;20007;-79
2021/11/15 06:56:27;;;;;;;85.57;57.38;;;;;;;;;;6358350;22;20003;-80
2021/11/15 06:59:27;;;;;;;72.07;52.70;;;;;;;;;;6335564;22;20439;-78
2021/11/15 07:02:15;;;;;;;61.47;43.80;;;;;;;;;;6337802;22;19987;-77
2021/11/15 07:05:27;;;;;;;55.92;41.78;;;;;;;;;;6359128;22;20022;-78
2021/11/15 07:08:12;;;;;;;51.55;38.22;;;;;;;;;;6214611;23;20027;-78
2021/11/15 07:16:54;;;;;;;73.68;51.28;;;;;;;;;;6240424;23;20007;-78
2021/11/15 07:30:22;;;;;;;62.42;45.17;;;;;;;;;;6355927;22;19914;-75
2021/11/15 07:32:50;;;;;;;69.55;47.60;;;;;;;;;;6330647;22;19999;-76
2021/11/15 07:35:19;;;;;;;60.95;42.92;;;;;;;;;;6291362;22;20000;-78
2021/11/15 07:38:08;;;;;;;65.60;40.95;;;;;;;;;;6294471;22;20020;-79
2021/11/15 07:41:01;;;;;;;69.47;44.70;;;;;;;;;;6296612;22;20396;-76
2021/11/15 07:54:24;;;;;;;53.40;39.28;;;;;;;;;;6361127;22;20029;-76
2021/11/15 07:57:08;;;;;;;61.17;40.42;;;;;;;;;;6367891;22;19999;-76
2021/11/15 07:59:35;;;;;;;62.75;41.67;;;;;;;;;;6339777;22;19989;-76
2021/11/15 08:02:01;;;;;;;68.30;44.55;;;;;;;;;;6339209;22;20009;-76
2021/11/15 08:04:28;;;;;;;70.25;46.95;;;;;;;;;;6334688;22;20037;-78
2021/11/15 08:06:54;;;;;;;68.07;48.10;;;;;;;;;;6335205;22;20010;-76
2021/11/15 08:09:20;;;;;;;74.55;51.63;;;;;;;;;;6338651;22;20009;-78
2021/11/15 08:11:47;;;;;;;72.55;49.25;;;;;;;;;;6338801;22;19994;-74
2021/11/15 08:14:17;;;;;;;83.55;53.78;;;;;;;;;;6363483;22;19998;-78
2021/11/15 08:16:47;;;;;;;86.30;54.63;;;;;;;;;;6331043;22;19998;-79
2021/11/15 08:19:14;;;;;;;93.18;55.70;;;;;;;;;;6332325;22;20003;-78
2021/11/15 08:21:40;;;;;;;86.32;54.17;;;;;;;;;;6355428;22;20015;-78
2021/11/15 14:02:32;;;;;;;41.28;26.23;;;;;;;;;;6344525;22;20228;-78
2021/11/15 14:35:11;;;;;;;38.25;27.10;;;;;;;;;;6326965;22;20110;-78
2021/11/15 14:40:24;;;;;;;42.10;28.10;;;;;;;;;;6372920;22;20022;-80
2021/11/15 16:34:18;;;;;;;162.55;92.55;;;179.90;2252.80;;;;;;6323235;22;20018;-78
2021/11/15 18:25:49;;;;;;;244.80;114.20;;;154.40;2252.80;;;;;;6339006;22;20021;-78
2021/11/15 18:41:34;;;;;;;176.38;90.20;;;;;;;;;;6353856;22;20033;-79
2021/11/15 18:44:10;;;;;;;165.50;88.78;;;;;;;;;;6297891;22;20011;-78
2021/11/15 18:47:10;;;;;;;146.57;78.25;;;;;;;;;;6295872;22;19988;-81
2021/11/15 18:52:31;;;;;;;84.72;51.88;;;;;;;;;;6164850;23;20499;-79
2021/11/15 18:55:09;;;;;;;80.03;51.35;;;;;;;;;;6173953;23;19986;-78
2021/11/15 18:57:36;;;;;;;88.68;51.67;;;;;;;;;;6149027;23;20018;-78
2021/11/15 19:00:11;;;;;;;82.65;48.10;;;;;;;;;;6172200;23;20061;-79
2021/11/15 19:02:59;;;;;;;76.00;45.08;;;;;;;;;;6168815;23;20013;-78
2021/11/15 19:13:33;;;;;;;49.90;30.85;;;;;;;;;;6349182;22;20352;-77
2021/11/15 19:16:14;;;;;;;43.53;28.52;;;;;;;;;;6324802;22;20086;-78
2021/11/15 19:18:43;;;;;;;47.05;27.30;;;;;;;;;;6354488;22;20011;-77
2021/11/15 19:21:09;;;;;;;40.75;26.95;;;;;;;;;;6342676;22;20017;-76
2021/11/15 19:23:36;;;;;;;37.22;25.63;;;;;;;;;;6322801;22;20002;-75
2021/11/15 19:26:04;;;;;;;42.17;27.60;;;;;;;;;;6340694;22;19999;-75
2021/11/15 19:28:31;;;;;;;42.80;26.80;;;;;;;;;;6311518;22;20371;-75
2021/11/15 19:30:58;;;;;;;43.75;26.33;;;;;;;;;;6311646;22;20496;-76
2021/11/15 19:33:24;;;;;;;41.92;25.80;;;;;;;;;;6311665;22;20002;-75
